Time;durP1;ratioP1;P1;durP2;ratioP2;P2;SDS_P1;SDS_P2;PMS_P1;PMS_P2;Temp;Humidity;BMP_temperature;BMP_pressure;BME280_temperature;BME280_humidity;BME280_pressure;Samples;Min_cycle;Max_cycle;Signal;HPM_P1;HPM_P2
2021/12/27 00:01:34;;;;;;;;;23.75;23.75;;;;;;;;5254005;28;8843;-75
2021/12/27 00:04:06;;;;;;;;;24.50;22.75;;;;;;;;5270520;28;8786;-74
2021/12/27 00:06:55;;;;;;;;;24.00;22.75;;;;;;;;5270457;28;8778;-74
2021/12/27 00:09:45;;;;;;;;;23.00;23.00;;;;;;;;5256195;28;8800;-76
2021/12/27 00:12:16;;;;;;;;;19.00;18.00;;;;;;;;5270699;28;8773;-75
2021/12/27 00:14:47;;;;;;;;;18.33;18.33;;;;;;;;5253915;28;8781;-80
2021/12/27 00:17:18;;;;;;;;;18.67;18.67;;;;;;;;5253469;28;8779;-78
2021/12/27 00:19:49;;;;;;;;;20.67;20.67;;;;;;;;5252650;28;8766;-79
2021/12/27 00:22:20;;;;;;;;;18.67;18.33;;;;;;;;5270354;28;8778;-79
2021/12/27 00:24:51;;;;;;;;;20.00;20.00;;;;;;;;5253839;28;11500;-77
2021/12/27 00:27:22;;;;;;;;;10.00;10.00;;;;;;;;5270680;28;9621;-77
2021/12/27 00:29:53;;;;;;;;;7.00;7.00;;;;;;;;5270383;28;8770;-80
2021/12/27 00:32:24;;;;;;;;;3.25;3.25;;;;;;;;5270154;28;8918;-80
2021/12/27 00:34:55;;;;;;;;;5.60;5.60;;;;;;;;5288505;28;8750;-80
2021/12/27 00:37:26;;;;;;;;;7.25;7.25;;;;;;;;5254105;28;8758;-80
2021/12/27 00:39:57;;;;;;;;;7.60;7.60;;;;;;;;5253660;28;11367;-81
2021/12/27 00:42:46;;;;;;;;;14.00;14.00;;;;;;;;5270244;28;8762;-80
2021/12/27 00:45:17;;;;;;;;;15.00;15.00;;;;;;;;5270368;28;8822;-79
2021/12/27 00:47:50;;;;;;;;;20.75;20.25;;;;;;;;5253114;28;9550;-81
2021/12/27 00:50:21;;;;;;;;;20.50;20.50;;;;;;;;5270173;28;9526;-79
2021/12/27 00:52:52;;;;;;;;;21.50;20.75;;;;;;;;5286984;28;8785;-81
2021/12/27 00:55:24;;;;;;;;;24.50;24.50;;;;;;;;5270217;28;8778;-80
2021/12/27 00:57:55;;;;;;;;;22.50;21.25;;;;;;;;5269741;28;8911;-78
2021/12/27 01:00:26;;;;;;;;;18.67;18.67;;;;;;;;5270124;28;8884;-76
2021/12/27 01:02:58;;;;;;;;;21.00;21.00;;;;;;;;5253754;28;8801;-76
2021/12/27 01:05:29;;;;;;;;;23.75;23.00;;;;;;;;5287072;28;8770;-77
2021/12/27 01:08:18;;;;;;;;;21.75;21.00;;;;;;;;5288116;28;9562;-77
2021/12/27 01:11:13;;;;;;;;;21.75;20.50;;;;;;;;5252771;28;8777;-76
2021/12/27 01:13:47;;;;;;;;;24.75;24.50;;;;;;;;5254005;28;8762;-79
2021/12/27 01:16:19;;;;;;;;;12.60;12.00;;;;;;;;5236498;28;8762;-79
2021/12/27 01:18:51;;;;;;;;;15.60;15.60;;;;;;;;5252912;28;8958;-82
2021/12/27 01:21:24;;;;;;;;;0.40;0.40;;;;;;;;5269928;28;8766;-83
2021/12/27 01:23:55;;;;;;;;;12.40;11.40;;;;;;;;5270161;28;8785;-83
2021/12/27 01:26:45;;;;;;;;;15.50;15.50;;;;;;;;5255747;28;8742;-80
2021/12/27 01:29:16;;;;;;;;;19.00;17.25;;;;;;;;5253072;28;8804;-81
2021/12/27 01:31:47;;;;;;;;;15.60;14.60;;;;;;;;5257205;28;8829;-80
2021/12/27 01:34:18;;;;;;;;;21.75;20.00;;;;;;;;5256698;28;8766;-79
2021/12/27 01:36:49;;;;;;;;;15.50;15.50;;;;;;;;5291228;28;8835;-81
2021/12/27 01:39:20;;;;;;;;;14.40;14.40;;;;;;;;5256869;28;8851;-81
2021/12/27 01:41:52;;;;;;;;;15.00;15.00;;;;;;;;5273414;28;8773;-80
2021/12/27 01:44:23;;;;;;;;;19.20;19.20;;;;;;;;5273305;28;8794;-80
2021/12/27 01:46:54;;;;;;;;;15.00;15.00;;;;;;;;5239778;28;8935;-80
2021/12/27 01:49:25;;;;;;;;;16.40;16.40;;;;;;;;5239727;28;8802;-79
2021/12/27 01:51:57;;;;;;;;;8.40;8.40;;;;;;;;5273423;28;9622;-78
2021/12/27 01:54:28;;;;;;;;;17.60;17.00;;;;;;;;5256184;28;8798;-79
2021/12/27 01:56:59;;;;;;;;;15.75;15.75;;;;;;;;5256479;28;8762;-77
2021/12/27 01:59:30;;;;;;;;;13.60;13.60;;;;;;;;5273187;28;12145;-78
2021/12/27 02:02:01;;;;;;;;;24.33;24.00;;;;;;;;5290903;28;8766;-78
2021/12/27 02:04:32;;;;;;;;;19.00;19.00;;;;;;;;5291045;28;10479;-78
2021/12/27 02:07:03;;;;;;;;;20.25;20.25;;;;;;;;5291237;28;8750;-77
2021/12/27 02:09:45;;;;;;;;;17.00;17.00;;;;;;;;5256223;28;10477;-79
2021/12/27 02:12:17;;;;;;;;;12.80;12.00;;;;;;;;5273158;28;11362;-79
2021/12/27 02:14:49;;;;;;;;;13.40;13.40;;;;;;;;5256290;28;8773;-78
2021/12/27 02:17:20;;;;;;;;;11.00;11.00;;;;;;;;5239234;28;8794;-76
2021/12/27 02:19:52;;;;;;;;;12.40;12.40;;;;;;;;5255746;28;8900;-77
2021/12/27 02:22:23;;;;;;;;;17.00;17.00;;;;;;;;5273168;28;8793;-77
2021/12/27 02:24:54;;;;;;;;;8.60;8.60;;;;;;;;5290082;28;8801;-76
2021/12/27 02:27:45;;;;;;;;;9.40;9.40;;;;;;;;5272636;28;8905;-76
2021/12/27 02:30:17;;;;;;;;;13.00;12.60;;;;;;;;5290389;28;8778;-76
2021/12/27 02:32:50;;;;;;;;;12.40;12.40;;;;;;;;5272278;28;8786;-77
2021/12/27 02:35:27;;;;;;;;;19.50;19.50;;;;;;;;5272216;28;8770;-75
2021/12/27 02:38:19;;;;;;;;;19.80;18.60;;;;;;;;5275015;28;8974;-75
2021/12/27 02:40:51;;;;;;;;;15.40;15.40;;;;;;;;5254926;28;8770;-78
2021/12/27 02:43:43;;;;;;;;;11.60;10.80;;;;;;;;5258165;28;8790;-81
2021/12/27 02:46:15;;;;;;;;;15.40;15.00;;;;;;;;5239425;28;8898;-79
2021/12/27 02:48:47;;;;;;;;;5.60;5.60;;;;;;;;5278388;28;8805;-76
2021/12/27 02:51:19;;;;;;;;;9.00;9.00;;;;;;;;5290477;28;8766;-78
2021/12/27 02:53:50;;;;;;;;;11.20;9.00;;;;;;;;5257154;28;8761;-75
2021/12/27 02:56:22;;;;;;;;;8.20;8.20;;;;;;;;5273696;28;8773;-77
2021/12/27 02:58:53;;;;;;;;;11.60;11.60;;;;;;;;5275476;28;8750;-77
2021/12/27 03:01:25;;;;;;;;;42.25;36.75;;;;;;;;5243198;28;8750;-77
2021/12/27 03:04:14;;;;;;;;;6.20;5.20;;;;;;;;5278283;28;8751;-79
2021/12/27 03:06:45;;;;;;;;;13.00;13.00;;;;;;;;5258490;28;8765;-75
2021/12/27 03:09:16;;;;;;;;;10.40;10.00;;;;;;;;5274607;28;8778;-77
2021/12/27 03:12:11;;;;;;;;;13.60;13.60;;;;;;;;5276673;28;9445;-77
2021/12/27 03:14:43;;;;;;;;;1.00;1.00;;;;;;;;5259493;28;8751;-76
2021/12/27 03:17:14;;;;;;;;;11.60;10.40;;;;;;;;5273712;28;9512;-76
2021/12/27 03:19:46;;;;;;;;;15.80;15.80;;;;;;;;5294589;28;8778;-79
2021/12/27 03:22:17;;;;;;;;;19.25;18.00;;;;;;;;5255036;28;8780;-77
2021/12/27 03:24:48;;;;;;;;;15.50;15.50;;;;;;;;5289998;28;11494;-80
2021/12/27 03:27:18;;;;;;;;;16.00;15.00;;;;;;;;5308487;28;9082;-78
2021/12/27 03:29:50;;;;;;;;;11.80;11.80;;;;;;;;5273287;28;12144;-79
2021/12/27 03:32:22;;;;;;;;;12.20;11.40;;;;;;;;5292250;28;8774;-78
2021/12/27 03:34:56;;;;;;;;;9.80;9.80;;;;;;;;5291112;28;8770;-79
2021/12/27 03:37:27;;;;;;;;;12.20;12.00;;;;;;;;5274643;28;8832;-79
2021/12/27 03:39:58;;;;;;;;;14.00;14.00;;;;;;;;5256584;28;8861;-80
2021/12/27 03:42:51;;;;;;;;;14.80;14.20;;;;;;;;5293711;28;8759;-81
2021/12/27 03:45:25;;;;;;;;;14.80;13.80;;;;;;;;5295990;28;8840;-79
2021/12/27 03:47:57;;;;;;;;;13.80;13.80;;;;;;;;5295131;28;9504;-80
2021/12/27 03:50:28;;;;;;;;;12.40;12.40;;;;;;;;5296550;28;8802;-80
2021/12/27 03:52:59;;;;;;;;;14.00;13.25;;;;;;;;5293729;28;8770;-81
2021/12/27 03:55:30;;;;;;;;;10.50;9.75;;;;;;;;5295078;28;9545;-78
2021/12/27 03:58:22;;;;;;;;;15.25;15.25;;;;;;;;5259520;28;10162;-78
2021/12/27 04:03:46;;;;;;;;;18.00;17.40;;;;;;;;5275805;28;8742;-79
2021/12/27 04:06:19;;;;;;;;;8.40;8.40;;;;;;;;5259767;28;8794;-78
2021/12/27 04:09:08;;;;;;;;;16.80;16.80;;;;;;;;5294491;28;9489;-78
2021/12/27 04:11:39;;;;;;;;;3.75;3.25;;;;;;;;5255989;28;8793;-79
2021/12/27 04:14:10;;;;;;;;;13.00;13.00;;;;;;;;5238458;28;8770;-79
2021/12/27 04:16:42;;;;;;;;;12.20;12.20;;;;;;;;5263183;28;11379;-81
2021/12/27 04:19:13;;;;;;;;;15.60;12.60;;;;;;;;5269581;28;8770;-80
2021/12/27 04:21:44;;;;;;;;;16.60;16.60;;;;;;;;5276703;28;8766;-81
2021/12/27 04:24:15;;;;;;;;;16.00;16.00;;;;;;;;5278630;28;8850;-79
2021/12/27 04:26:46;;;;;;;;;18.00;16.00;;;;;;;;5289258;28;8786;-79
2021/12/27 04:29:17;;;;;;;;;18.00;18.00;;;;;;;;5290704;28;8818;-80
2021/12/27 04:31:48;;;;;;;;;10.25;10.00;;;;;;;;5255741;28;11422;-77
2021/12/27 04:34:19;;;;;;;;;11.50;11.00;;;;;;;;5288394;28;8833;-78
2021/12/27 04:36:50;;;;;;;;;9.25;9.25;;;;;;;;5286814;28;12211;-78
2021/12/27 04:39:21;;;;;;;;;12.00;12.00;;;;;;;;5287245;28;10432;-78
2021/12/27 04:41:53;;;;;;;;;10.00;10.00;;;;;;;;5270416;28;10550;-78
2021/12/27 04:44:42;;;;;;;;;13.40;13.00;;;;;;;;5270205;28;9110;-78
2021/12/27 04:47:16;;;;;;;;;20.75;20.75;;;;;;;;5287349;28;8790;-78
2021/12/27 04:49:47;;;;;;;;;14.60;13.80;;;;;;;;5270230;28;9952;-78
2021/12/27 04:52:18;;;;;;;;;16.40;15.20;;;;;;;;5286872;28;8801;-78
2021/12/27 04:54:49;;;;;;;;;15.00;14.00;;;;;;;;5288008;28;8758;-78
2021/12/27 04:57:20;;;;;;;;;13.20;13.20;;;;;;;;5269800;28;11529;-76
2021/12/27 04:59:51;;;;;;;;;19.00;18.75;;;;;;;;5286653;28;8896;-76
2021/12/27 05:02:23;;;;;;;;;16.75;15.75;;;;;;;;5286639;28;8774;-80
2021/12/27 05:04:54;;;;;;;;;23.60;21.00;;;;;;;;5271309;28;11010;-72
2021/12/27 05:07:25;;;;;;;;;17.00;16.00;;;;;;;;5292573;28;8770;-76
2021/12/27 05:09:56;;;;;;;;;16.25;16.25;;;;;;;;5257003;28;8798;-76
2021/12/27 05:12:27;;;;;;;;;15.33;13.67;;;;;;;;5273771;28;8773;-76
2021/12/27 05:19:22;;;;;;;;;26.75;20.50;;;;;;;;5293386;28;8694;-76
2021/12/27 05:21:53;;;;;;;;;27.50;24.50;;;;;;;;5259233;28;8885;-73
2021/12/27 05:24:27;;;;;;;;;22.50;22.00;;;;;;;;5259243;28;8768;-76
2021/12/27 05:26:58;;;;;;;;;16.75;16.50;;;;;;;;5275634;27;8817;-74
2021/12/27 05:29:30;;;;;;;;;26.00;25.00;;;;;;;;5315158;27;8802;-77
2021/12/27 05:32:01;;;;;;;;;47.75;43.75;;;;;;;;5296838;27;8894;-76
2021/12/27 05:34:32;;;;;;;;;52.00;47.00;;;;;;;;5313043;27;8775;-75
2021/12/27 05:41:52;;;;;;;;;30.75;30.75;;;;;;;;5291736;28;8690;-76
2021/12/27 05:44:23;;;;;;;;;36.75;33.75;;;;;;;;5256455;28;8926;-75
2021/12/27 05:46:54;;;;;;;;;27.33;27.00;;;;;;;;5291288;28;8943;-75
2021/12/27 05:49:25;;;;;;;;;35.25;32.25;;;;;;;;5273014;28;8792;-76
2021/12/27 05:51:56;;;;;;;;;33.75;33.50;;;;;;;;5291068;28;9440;-75
2021/12/27 05:54:27;;;;;;;;;31.00;30.00;;;;;;;;5256235;28;8853;-74
2021/12/27 05:56:58;;;;;;;;;33.00;28.00;;;;;;;;5273079;28;9642;-74
2021/12/27 05:59:29;;;;;;;;;20.33;20.33;;;;;;;;5256026;28;8861;-67
2021/12/27 06:02:00;;;;;;;;;21.67;20.67;;;;;;;;5291456;28;8773;-77
2021/12/27 06:04:31;;;;;;;;;20.00;19.00;;;;;;;;5239341;28;8780;-76
2021/12/27 06:07:02;;;;;;;;;15.25;14.75;;;;;;;;5273051;28;8862;-77
2021/12/27 06:09:51;;;;;;;;;14.25;13.75;;;;;;;;5272713;28;8799;-70
2021/12/27 06:12:23;;;;;;;;;14.33;14.00;;;;;;;;5290678;28;8772;-71
2021/12/27 06:14:54;;;;;;;;;15.50;14.50;;;;;;;;5272859;28;8795;-73
2021/12/27 06:17:25;;;;;;;;;28.33;28.33;;;;;;;;5255708;28;8780;-71
2021/12/27 06:19:56;;;;;;;;;29.33;25.00;;;;;;;;5272394;28;8764;-72
2021/12/27 06:22:47;;;;;;;;;36.75;35.50;;;;;;;;5258570;28;11471;-73
2021/12/27 06:25:18;;;;;;;;;32.00;32.00;;;;;;;;5255517;28;8800;-71
2021/12/27 06:28:07;;;;;;;;;31.50;29.25;;;;;;;;5272459;28;8803;-71
2021/12/27 06:30:38;;;;;;;;;22.33;22.33;;;;;;;;5272461;28;8784;-71
2021/12/27 06:33:10;;;;;;;;;43.67;39.67;;;;;;;;5238763;28;8775;-71
2021/12/27 06:35:42;;;;;;;;;40.00;39.75;;;;;;;;5272051;28;11463;-74
2021/12/27 06:38:13;;;;;;;;;32.00;30.50;;;;;;;;5289460;28;9535;-71
2021/12/27 06:40:44;;;;;;;;;33.33;33.33;;;;;;;;5256009;28;8784;-73
2021/12/27 06:43:14;;;;;;;;;30.00;28.67;;;;;;;;5255432;28;8807;-71
2021/12/27 06:45:45;;;;;;;;;29.00;28.33;;;;;;;;5271983;28;8794;-74
2021/12/27 06:48:16;;;;;;;;;28.00;27.00;;;;;;;;5290185;28;8825;-73
2021/12/27 06:50:47;;;;;;;;;33.50;30.00;;;;;;;;5271838;28;11391;-73
2021/12/27 06:53:19;;;;;;;;;26.50;23.00;;;;;;;;5255229;28;8802;-74
2021/12/27 06:55:51;;;;;;;;;29.00;26.00;;;;;;;;5290437;28;8792;-74
2021/12/27 06:58:21;;;;;;;;;51.33;44.33;;;;;;;;5271567;28;9496;-73
2021/12/27 07:00:53;;;;;;;;;45.00;44.33;;;;;;;;5271848;28;10949;-73
2021/12/27 07:03:24;;;;;;;;;24.25;19.25;;;;;;;;5289587;28;8793;-73
2021/12/27 07:05:54;;;;;;;;;12.67;10.00;;;;;;;;5289963;28;8778;-73
2021/12/27 07:08:26;;;;;;;;;21.67;18.67;;;;;;;;5271531;28;11402;-73
2021/12/27 07:10:57;;;;;;;;;21.50;18.25;;;;;;;;5271497;28;8774;-73
2021/12/27 07:13:29;;;;;;;;;20.00;18.50;;;;;;;;5254860;28;8805;-73
2021/12/27 07:16:00;;;;;;;;;20.25;20.25;;;;;;;;5237980;28;8777;-73
2021/12/27 07:18:31;;;;;;;;;23.75;22.25;;;;;;;;5271588;28;8774;-73
2021/12/27 07:21:20;;;;;;;;;16.50;14.50;;;;;;;;5271364;28;8833;-73
2021/12/27 07:23:51;;;;;;;;;31.25;26.75;;;;;;;;5271332;28;8770;-74
2021/12/27 07:26:23;;;;;;;;;26.75;18.00;;;;;;;;5271834;28;8770;-73
2021/12/27 07:28:53;;;;;;;;;29.25;25.50;;;;;;;;5237704;28;8866;-73
2021/12/27 07:31:43;;;;;;;;;29.50;26.50;;;;;;;;5271261;28;8865;-73
2021/12/27 07:34:14;;;;;;;;;24.00;21.00;;;;;;;;5254173;28;8946;-73
2021/12/27 07:36:46;;;;;;;;;19.80;19.80;;;;;;;;5254151;28;9799;-73
2021/12/27 07:39:17;;;;;;;;;26.00;25.75;;;;;;;;5237917;28;8808;-73
2021/12/27 07:41:49;;;;;;;;;20.60;18.40;;;;;;;;5270553;28;8817;-73
2021/12/27 07:44:20;;;;;;;;;20.80;20.40;;;;;;;;5237460;28;8801;-73
2021/12/27 07:46:51;;;;;;;;;32.67;28.33;;;;;;;;5271004;28;9484;-73
2021/12/27 07:49:22;;;;;;;;;32.00;29.50;;;;;;;;5270778;28;8797;-73
2021/12/27 07:51:53;;;;;;;;;41.33;39.67;;;;;;;;5271265;28;8758;-73
2021/12/27 07:54:24;;;;;;;;;32.75;32.25;;;;;;;;5288902;28;9482;-73
2021/12/27 07:56:55;;;;;;;;;36.25;35.50;;;;;;;;5288400;28;8825;-73
2021/12/27 07:59:28;;;;;;;;;22.00;21.00;;;;;;;;5270380;28;8769;-73
2021/12/27 08:01:59;;;;;;;;;18.80;15.40;;;;;;;;5253761;28;8917;-73
2021/12/27 08:04:30;;;;;;;;;8.50;6.25;;;;;;;;5252974;28;8896;-73
2021/12/27 08:07:00;;;;;;;;;27.25;25.00;;;;;;;;5253350;28;11352;-73
2021/12/27 08:09:31;;;;;;;;;24.25;21.75;;;;;;;;5270688;28;8786;-73
2021/12/27 08:12:02;;;;;;;;;21.00;19.00;;;;;;;;5288467;28;8754;-73
2021/12/27 08:14:33;;;;;;;;;17.60;16.00;;;;;;;;5288432;28;8770;-73
2021/12/27 08:17:04;;;;;;;;;24.50;24.25;;;;;;;;5270622;28;8823;-73
2021/12/27 08:19:35;;;;;;;;;15.50;14.50;;;;;;;;5253402;28;8804;-73
2021/12/27 08:22:06;;;;;;;;;14.00;13.00;;;;;;;;5253357;28;8766;-73
2021/12/27 08:24:36;;;;;;;;;20.50;18.00;;;;;;;;5270139;28;8788;-73
2021/12/27 08:27:07;;;;;;;;;24.50;21.75;;;;;;;;5270131;28;9582;-73
2021/12/27 08:29:38;;;;;;;;;26.00;24.25;;;;;;;;5236524;28;9476;-73
2021/12/27 08:32:09;;;;;;;;;27.25;26.50;;;;;;;;5253094;28;8798;-73
2021/12/27 08:34:39;;;;;;;;;13.50;13.50;;;;;;;;5288712;28;8762;-73
2021/12/27 08:37:10;;;;;;;;;48.33;45.33;;;;;;;;5288106;28;8851;-73
2021/12/27 08:39:41;;;;;;;;;18.00;17.50;;;;;;;;5289233;28;8896;-73
2021/12/27 08:42:12;;;;;;;;;12.50;12.50;;;;;;;;5292646;28;9541;-73
2021/12/27 08:44:43;;;;;;;;;11.50;11.50;;;;;;;;5274626;28;8774;-73
2021/12/27 08:47:15;;;;;;;;;13.75;13.50;;;;;;;;5292844;28;8831;-73
2021/12/27 08:49:46;;;;;;;;;7.80;7.80;;;;;;;;5274233;28;8877;-73
2021/12/27 08:52:17;;;;;;;;;15.00;15.00;;;;;;;;5292220;28;8780;-73
2021/12/27 08:54:48;;;;;;;;;6.00;6.00;;;;;;;;5274255;28;8784;-73
2021/12/27 08:57:19;;;;;;;;;11.75;11.00;;;;;;;;5292407;28;8831;-73
2021/12/27 08:59:50;;;;;;;;;26.50;25.25;;;;;;;;5257256;28;8899;-73
2021/12/27 09:02:20;;;;;;;;;17.00;16.50;;;;;;;;5292113;28;8796;-73
2021/12/27 09:04:51;;;;;;;;;15.00;13.50;;;;;;;;5241069;28;11450;-73
2021/12/27 09:07:22;;;;;;;;;27.33;27.33;;;;;;;;5274801;28;8823;-73
2021/12/27 09:09:53;;;;;;;;;35.25;31.25;;;;;;;;5273451;28;11508;-72
2021/12/27 09:12:43;;;;;;;;;32.80;31.60;;;;;;;;5292637;28;8764;-72
2021/12/27 09:15:15;;;;;;;;;50.33;45.33;;;;;;;;5291836;28;8841;-72
2021/12/27 09:17:45;;;;;;;;;42.00;38.00;;;;;;;;5291603;28;11462;-73
2021/12/27 09:20:16;;;;;;;;;39.67;38.33;;;;;;;;5273311;28;8785;-73
2021/12/27 09:22:47;;;;;;;;;32.50;29.00;;;;;;;;5291732;28;8905;-75
2021/12/27 09:25:18;;;;;;;;;31.40;27.00;;;;;;;;5256588;28;8780;-72
2021/12/27 09:27:49;;;;;;;;;31.50;30.75;;;;;;;;5256646;28;8804;-71
2021/12/27 09:30:20;;;;;;;;;33.75;32.00;;;;;;;;5256481;28;8800;-73
2021/12/27 09:32:51;;;;;;;;;35.00;32.25;;;;;;;;5273306;28;8820;-72
2021/12/27 09:35:21;;;;;;;;;27.67;27.33;;;;;;;;5291743;28;8784;-72
2021/12/27 09:37:52;;;;;;;;;30.25;29.50;;;;;;;;5291355;28;8788;-71
2021/12/27 09:40:23;;;;;;;;;37.67;35.33;;;;;;;;5273030;28;8768;-72
2021/12/27 09:43:13;;;;;;;;;28.00;27.75;;;;;;;;5276586;28;8773;-71
2021/12/27 09:45:44;;;;;;;;;31.25;28.75;;;;;;;;5290977;28;8843;-72
2021/12/27 09:48:15;;;;;;;;;23.80;22.60;;;;;;;;5273035;28;12336;-72
2021/12/27 09:50:49;;;;;;;;;21.60;20.40;;;;;;;;5290268;28;8784;-72
2021/12/27 09:53:21;;;;;;;;;25.00;24.20;;;;;;;;5273345;28;8922;-72
2021/12/27 09:55:52;;;;;;;;;24.20;21.00;;;;;;;;5291050;28;8822;-72
2021/12/27 09:58:23;;;;;;;;;15.60;15.00;;;;;;;;5291227;28;8868;-73
2021/12/27 10:00:58;;;;;;;;;11.80;10.80;;;;;;;;5291296;28;8756;-73
2021/12/27 10:03:31;;;;;;;;;18.20;18.20;;;;;;;;5273205;28;8772;-73
2021/12/27 10:06:10;;;;;;;;;18.80;18.80;;;;;;;;5273150;28;8789;-72
2021/12/27 10:08:43;;;;;;;;;19.40;19.40;;;;;;;;5291220;28;8811;-72
2021/12/27 10:11:15;;;;;;;;;19.80;19.80;;;;;;;;5256183;28;8761;-72
2021/12/27 10:13:57;;;;;;;;;17.20;17.20;;;;;;;;5289764;28;9482;-72
2021/12/27 10:16:47;;;;;;;;;15.00;14.60;;;;;;;;5291185;28;8964;-72
2021/12/27 10:19:19;;;;;;;;;14.20;14.20;;;;;;;;5255568;28;8776;-72
2021/12/27 10:21:51;;;;;;;;;9.80;9.80;;;;;;;;5273144;28;8822;-72
2021/12/27 10:24:27;;;;;;;;;7.40;7.40;;;;;;;;5290397;28;8772;-71
2021/12/27 10:27:02;;;;;;;;;11.80;11.80;;;;;;;;5272915;28;9489;-72
2021/12/27 10:29:38;;;;;;;;;13.80;13.80;;;;;;;;5255785;28;8784;-73
2021/12/27 10:32:10;;;;;;;;;12.60;11.20;;;;;;;;5290777;28;8800;-72
2021/12/27 10:34:51;;;;;;;;;6.20;5.80;;;;;;;;5255668;28;8785;-72
2021/12/27 10:37:31;;;;;;;;;22.20;19.20;;;;;;;;5255570;28;8756;-73
2021/12/27 10:40:02;;;;;;;;;18.40;18.40;;;;;;;;5255464;28;8903;-73
2021/12/27 10:42:39;;;;;;;;;27.75;27.75;;;;;;;;5255307;28;8768;-73
2021/12/27 10:45:28;;;;;;;;;40.50;36.00;;;;;;;;5271909;28;8959;-73
2021/12/27 10:48:02;;;;;;;;;46.67;40.33;;;;;;;;5290662;28;8812;-73
2021/12/27 10:50:51;;;;;;;;;33.75;33.75;;;;;;;;5290254;28;8834;-72
2021/12/27 10:53:22;;;;;;;;;41.67;38.00;;;;;;;;5271429;28;8776;-73
2021/12/27 10:55:54;;;;;;;;;42.50;35.75;;;;;;;;5290588;28;8856;-72
2021/12/27 10:58:26;;;;;;;;;25.80;25.00;;;;;;;;5255647;28;8777;-73
2021/12/27 11:00:58;;;;;;;;;13.60;13.60;;;;;;;;5272104;28;8795;-71
2021/12/27 11:03:29;;;;;;;;;14.40;14.40;;;;;;;;5271599;28;8814;-72
2021/12/27 11:06:20;;;;;;;;;16.80;16.80;;;;;;;;5271941;28;9458;-72
2021/12/27 11:08:52;;;;;;;;;19.80;18.60;;;;;;;;5271951;28;8796;-72
2021/12/27 11:11:24;;;;;;;;;17.60;16.00;;;;;;;;5289823;28;8753;-72
2021/12/27 11:13:56;;;;;;;;;14.20;14.20;;;;;;;;5290067;28;9566;-71
2021/12/27 11:16:28;;;;;;;;;14.60;14.60;;;;;;;;5289546;28;8807;-72
2021/12/27 11:18:59;;;;;;;;;18.20;18.20;;;;;;;;5254618;28;8773;-73
2021/12/27 11:21:33;;;;;;;;;23.25;22.25;;;;;;;;5237908;28;8879;-73
2021/12/27 11:24:04;;;;;;;;;21.25;19.50;;;;;;;;5271691;28;8780;-74
2021/12/27 11:26:36;;;;;;;;;27.75;25.00;;;;;;;;5289699;28;8768;-71
2021/12/27 11:29:14;;;;;;;;;28.00;27.50;;;;;;;;5254101;28;8806;-71
2021/12/27 11:31:46;;;;;;;;;23.00;23.00;;;;;;;;5290042;28;8900;-72
2021/12/27 11:34:18;;;;;;;;;17.60;14.40;;;;;;;;5271001;28;8799;-71
2021/12/27 11:36:53;;;;;;;;;6.50;6.50;;;;;;;;5271783;28;8796;-72
2021/12/27 11:39:43;;;;;;;;;10.50;10.50;;;;;;;;5289285;28;8787;-71
2021/12/27 11:42:18;;;;;;;;;21.00;18.25;;;;;;;;5289160;28;8765;-71
2021/12/27 11:44:49;;;;;;;;;17.50;17.00;;;;;;;;5289183;28;8796;-72
2021/12/27 11:47:25;;;;;;;;;28.00;26.67;;;;;;;;5270854;28;8816;-71
2021/12/27 11:49:59;;;;;;;;;25.25;24.25;;;;;;;;5270425;28;8784;-72
2021/12/27 11:52:38;;;;;;;;;16.50;14.25;;;;;;;;5271117;28;8810;-73
2021/12/27 11:55:10;;;;;;;;;23.75;23.75;;;;;;;;5253770;28;8784;-71
2021/12/27 11:57:53;;;;;;;;;6.40;6.00;;;;;;;;5237284;28;8761;-73
2021/12/27 12:00:24;;;;;;;;;13.80;13.80;;;;;;;;5271438;28;8757;-75
2021/12/27 12:03:02;;;;;;;;;7.40;7.40;;;;;;;;5270976;28;9478;-75
2021/12/27 12:05:47;;;;;;;;;6.00;6.00;;;;;;;;5271196;28;8798;-75
2021/12/27 12:08:21;;;;;;;;;16.40;16.40;;;;;;;;5253859;28;8808;-74
2021/12/27 12:10:55;;;;;;;;;21.80;21.00;;;;;;;;5271348;28;8776;-75
2021/12/27 12:13:47;;;;;;;;;27.50;25.50;;;;;;;;5271200;28;8765;-74
2021/12/27 12:16:21;;;;;;;;;18.20;18.20;;;;;;;;5288695;28;8779;-74
2021/12/27 12:18:52;;;;;;;;;12.60;12.60;;;;;;;;5288491;28;8904;-73
2021/12/27 12:21:45;;;;;;;;;13.60;12.20;;;;;;;;5288498;28;8765;-73
2021/12/27 12:24:34;;;;;;;;;12.40;10.80;;;;;;;;5256403;28;8806;-74
2021/12/27 12:27:23;;;;;;;;;10.00;10.00;;;;;;;;5270723;28;8791;-73
2021/12/27 12:29:56;;;;;;;;;11.75;11.50;;;;;;;;5288719;28;8796;-74
2021/12/27 12:32:27;;;;;;;;;13.80;13.80;;;;;;;;5288211;28;9520;-75
2021/12/27 12:34:59;;;;;;;;;14.00;14.00;;;;;;;;5270490;28;8792;-73
2021/12/27 12:37:29;;;;;;;;;23.25;22.00;;;;;;;;5288436;28;8827;-73
2021/12/27 12:40:01;;;;;;;;;24.00;22.00;;;;;;;;5270477;28;8777;-72
2021/12/27 12:42:32;;;;;;;;;19.75;19.75;;;;;;;;5288191;28;8769;-73
2021/12/27 12:45:06;;;;;;;;;31.67;30.33;;;;;;;;5253173;28;8800;-73
2021/12/27 12:47:38;;;;;;;;;20.00;20.00;;;;;;;;5287988;28;11596;-73
2021/12/27 12:50:27;;;;;;;;;7.25;7.25;;;;;;;;5255014;28;9483;-72
2021/12/27 12:52:59;;;;;;;;;15.00;15.00;;;;;;;;5270777;28;8792;-75
2021/12/27 12:55:32;;;;;;;;;16.50;16.50;;;;;;;;5288713;28;8927;-75
2021/12/27 12:58:03;;;;;;;;;15.50;14.50;;;;;;;;5269905;28;8764;-73
2021/12/27 13:00:34;;;;;;;;;14.33;12.67;;;;;;;;5270827;28;9419;-77
2021/12/27 13:03:13;;;;;;;;;14.75;13.75;;;;;;;;5270050;28;9810;-75
2021/12/27 13:05:55;;;;;;;;;38.00;29.75;;;;;;;;5253470;28;8764;-73
2021/12/27 13:08:26;;;;;;;;;26.00;24.50;;;;;;;;5269858;28;8816;-73
2021/12/27 13:11:17;;;;;;;;;26.50;25.00;;;;;;;;5288263;28;8772;-72
2021/12/27 13:14:07;;;;;;;;;17.25;17.25;;;;;;;;5272688;28;8753;-73
2021/12/27 13:16:57;;;;;;;;;19.25;18.25;;;;;;;;5258467;28;8745;-73
2021/12/27 13:20:02;;;;;;;;;9.25;8.25;;;;;;;;5273324;28;8772;-73
2021/12/27 13:22:56;;;;;;;;;21.50;17.50;;;;;;;;5272538;28;8756;-72
2021/12/27 13:25:50;;;;;;;;;20.25;19.75;;;;;;;;5289444;28;8768;-73
2021/12/27 13:28:44;;;;;;;;;16.75;14.00;;;;;;;;5276113;28;8820;-74
2021/12/27 13:31:33;;;;;;;;;13.50;12.75;;;;;;;;5276854;28;8760;-73
2021/12/27 13:34:41;;;;;;;;;12.50;12.00;;;;;;;;5292252;28;8752;-73
2021/12/27 13:37:34;;;;;;;;;18.50;18.50;;;;;;;;5262496;28;8780;-73
2021/12/27 13:44:46;;;;;;;;;17.50;17.00;;;;;;;;5291393;28;9499;-71
2021/12/27 13:47:35;;;;;;;;;13.75;10.50;;;;;;;;5275681;28;9443;-74
2021/12/27 13:50:26;;;;;;;;;8.25;8.25;;;;;;;;5276742;28;8788;-76
2021/12/27 13:53:34;;;;;;;;;9.00;9.00;;;;;;;;5276742;28;8736;-76
2021/12/27 13:56:25;;;;;;;;;10.75;10.75;;;;;;;;5262253;28;8744;-76
2021/12/27 13:59:18;;;;;;;;;17.50;15.00;;;;;;;;5262247;28;8752;-75
2021/12/27 14:02:08;;;;;;;;;21.25;20.00;;;;;;;;5276560;28;8748;-74
2021/12/27 14:04:59;;;;;;;;;32.00;31.25;;;;;;;;5262149;28;8740;-74
2021/12/27 14:07:48;;;;;;;;;23.00;22.25;;;;;;;;5261778;28;8753;-72
2021/12/27 14:10:37;;;;;;;;;7.25;7.25;;;;;;;;5291594;28;8780;-74
2021/12/27 14:13:46;;;;;;;;;11.75;11.75;;;;;;;;5275660;28;8744;-74
2021/12/27 14:16:39;;;;;;;;;14.25;14.25;;;;;;;;5275970;28;8772;-74
2021/12/27 14:19:28;;;;;;;;;14.00;14.00;;;;;;;;5291459;28;8773;-74
2021/12/27 14:22:24;;;;;;;;;15.75;15.75;;;;;;;;5261779;28;8757;-74
2021/12/27 14:25:15;;;;;;;;;16.25;15.50;;;;;;;;5275350;28;8745;-73
2021/12/27 14:28:10;;;;;;;;;19.00;18.25;;;;;;;;5247381;28;8760;-73
2021/12/27 14:30:59;;;;;;;;;20.25;20.25;;;;;;;;5261258;28;8744;-73
2021/12/27 14:33:50;;;;;;;;;13.00;12.75;;;;;;;;5275717;28;8733;-76
2021/12/27 14:36:47;;;;;;;;;8.50;8.50;;;;;;;;5261167;28;8776;-74
2021/12/27 14:39:37;;;;;;;;;20.00;19.25;;;;;;;;5251581;28;8760;-74
2021/12/27 14:42:27;;;;;;;;;12.00;12.00;;;;;;;;5275509;28;8761;-75
2021/12/27 14:45:16;;;;;;;;;18.50;18.00;;;;;;;;5275506;28;8800;-76
2021/12/27 14:48:06;;;;;;;;;14.00;13.00;;;;;;;;5246653;28;9427;-72
2021/12/27 14:51:15;;;;;;;;;12.00;12.00;;;;;;;;5290690;28;8737;-74
2021/12/27 14:54:04;;;;;;;;;15.25;15.25;;;;;;;;5246442;28;8744;-73
2021/12/27 14:56:57;;;;;;;;;9.00;9.00;;;;;;;;5275348;28;9397;-70
2021/12/27 14:59:46;;;;;;;;;15.00;13.75;;;;;;;;5290116;28;8756;-71
2021/12/27 15:02:36;;;;;;;;;23.50;21.50;;;;;;;;5290685;28;8749;-72
2021/12/27 15:05:25;;;;;;;;;63.00;50.75;;;;;;;;5275145;28;9372;-72
2021/12/27 15:07:57;;;;;;;;;22.00;20.25;;;;;;;;5255230;28;8780;-73
2021/12/27 15:10:41;;;;;;;;;18.50;17.50;;;;;;;;5274421;28;8818;-74
2021/12/27 15:13:34;;;;;;;;;24.00;21.75;;;;;;;;5274275;28;8796;-72
2021/12/27 15:16:25;;;;;;;;;15.25;14.50;;;;;;;;5274456;28;8792;-72
2021/12/27 15:18:56;;;;;;;;;16.50;16.50;;;;;;;;5271154;28;8736;-72
2021/12/27 15:21:27;;;;;;;;;19.00;19.00;;;;;;;;5239004;28;8872;-73
2021/12/27 15:23:59;;;;;;;;;22.25;20.50;;;;;;;;5289516;28;8768;-73
2021/12/27 15:26:35;;;;;;;;;16.25;16.25;;;;;;;;5272011;28;8759;-73
2021/12/27 15:29:24;;;;;;;;;17.75;16.00;;;;;;;;5255052;28;8855;-73
2021/12/27 15:32:14;;;;;;;;;12.75;12.00;;;;;;;;5238562;28;8726;-73
2021/12/27 15:34:45;;;;;;;;;14.00;14.00;;;;;;;;5254985;28;8744;-73
2021/12/27 15:37:44;;;;;;;;;16.75;16.25;;;;;;;;5256407;28;9477;-73
2021/12/27 15:40:35;;;;;;;;;17.75;17.25;;;;;;;;5259878;28;8803;-73